Time;durP1;ratioP1;P1;durP2;ratioP2;P2;SDS_P1;SDS_P2;PMS_P1;PMS_P2;Temp;Humidity;BMP_temperature;BMP_pressure;BME280_temperature;BME280_humidity;BME280_pressure;Samples;Min_cycle;Max_cycle;Signal;HPM_P1;HPM_P2
2022/01/23 00:02:11;;;;;;;4.40;1.93;;;;;;;;;;6198945;23;20171;-91
2022/01/23 00:05:18;;;;;;;1.67;1.23;;;;;;;;;;6198910;23;20179;-88
2022/01/23 00:08:24;;;;;;;3.37;1.90;;;;;;;;;;6199866;23;20600;-90
2022/01/23 00:11:31;;;;;;;4.63;3.23;;;;;;;;;;6198960;23;20247;-88
2022/01/23 00:18:02;;;;;;;1.43;1.33;;;;;;;;;;6200320;23;20216;-88
2022/01/23 00:21:09;;;;;;;3.47;2.93;;;;;;;;;;6200695;23;20179;-89
2022/01/23 00:31:01;;;;;;;1.77;1.67;;;;;;;;;;6198711;23;20169;-88
2022/01/23 00:34:07;;;;;;;1.77;1.67;;;;;;;;;;6200017;23;20195;-88
2022/01/23 00:37:12;;;;;;;2.30;2.17;;;;;;;;;;6196947;23;20202;-87
2022/01/23 00:40:17;;;;;;;0.97;0.90;;;;;;;;;;6198458;23;20219;-91
2022/01/23 00:43:28;;;;;;;6.67;2.13;;;;;;;;;;6199542;23;20200;-90
2022/01/23 00:46:37;;;;;;;2.57;2.03;;;;;;;;;;6202257;23;20180;-90
2022/01/23 00:49:42;;;;;;;2.67;2.27;;;;;;;;;;6197276;23;20513;-87
2022/01/23 00:52:47;;;;;;;3.70;2.07;;;;;;;;;;6198774;23;20172;-86
2022/01/23 00:55:52;;;;;;;1.13;1.13;;;;;;;;;;6201555;23;20282;-90
2022/01/23 00:58:57;;;;;;;2.33;2.13;;;;;;;;;;6201076;23;20171;-88
2022/01/23 01:02:04;;;;;;;2.80;1.97;;;;;;;;;;6200223;23;20320;-91
2022/01/23 01:05:10;;;;;;;3.00;2.00;;;;;;;;;;6199173;23;20171;-88
2022/01/23 01:08:17;;;;;;;3.30;2.33;;;;;;;;;;6199570;23;20295;-86
2022/01/23 01:11:52;;;;;;;2.13;1.93;;;;;;;;;;6198082;23;20230;-90
2022/01/23 01:15:28;;;;;;;2.07;1.53;;;;;;;;;;6198796;23;20278;-88
2022/01/23 01:32:04;;;;;;;2.70;2.43;;;;;;;;;;6197031;23;20183;-87
2022/01/23 01:35:21;;;;;;;1.23;1.13;;;;;;;;;;6198771;23;20172;-88
2022/01/23 01:38:26;;;;;;;1.20;1.03;;;;;;;;;;6199153;23;20505;-90
2022/01/23 01:41:35;;;;;;;0.90;0.90;;;;;;;;;;6199442;23;20486;-89
2022/01/23 01:44:40;;;;;;;1.73;1.27;;;;;;;;;;6200770;23;20249;-89
2022/01/23 01:48:20;;;;;;;1.20;0.93;;;;;;;;;;6142846;23;20238;-86
2022/01/23 01:51:31;;;;;;;5.43;1.90;;;;;;;;;;6198751;23;20483;-91
2022/01/23 01:55:02;;;;;;;2.03;1.90;;;;;;;;;;6196048;23;20191;-89
2022/01/23 01:58:33;;;;;;;1.07;1.07;;;;;;;;;;6196054;23;20207;-88
2022/01/23 02:08:44;;;;;;;2.57;1.27;;;;;;;;;;6193947;23;20167;-88
2022/01/23 02:12:10;;;;;;;1.57;0.97;;;;;;;;;;6195112;23;20178;-90
2022/01/23 02:15:42;;;;;;;2.17;1.70;;;;;;;;;;6197684;23;20200;-88
2022/01/23 02:22:47;;;;;;;1.37;1.27;;;;;;;;;;6197799;23;20163;-91
2022/01/23 02:53:37;;;;;;;4.07;2.20;;;;;;;;;;6196996;23;20192;-90
2022/01/23 02:56:47;;;;;;;1.37;0.90;;;;;;;;;;6195117;23;20187;-91
2022/01/23 02:59:54;;;;;;;0.77;0.77;;;;;;;;;;6197798;23;20167;-89
2022/01/23 03:03:36;;;;;;;1.00;1.00;;;;;;;;;;6192117;23;20649;-88
2022/01/23 03:07:11;;;;;;;0.80;0.80;;;;;;;;;;6196634;23;20325;-89
2022/01/23 03:10:21;;;;;;;1.53;1.23;;;;;;;;;;6193312;23;20615;-90
2022/01/23 03:27:14;;;;;;;3.03;1.53;;;;;;;;;;6199120;23;20507;-88
2022/01/23 03:30:24;;;;;;;2.03;1.83;;;;;;;;;;6197906;23;20175;-89
2022/01/23 03:33:29;;;;;;;2.73;1.10;;;;;;;;;;6197695;23;20199;-88
2022/01/23 03:36:35;;;;;;;3.60;1.97;;;;;;;;;;6196507;23;20175;-89
2022/01/23 03:39:41;;;;;;;4.23;2.10;;;;;;;;;;6196396;23;20175;-92
2022/01/23 03:42:48;;;;;;;1.73;1.63;;;;;;;;;;6198831;23;20160;-87
2022/01/23 03:46:20;;;;;;;6.03;2.47;;;;;;;;;;6198709;23;20522;-91
2022/01/23 03:49:33;;;;;;;2.53;1.23;;;;;;;;;;6196823;23;20533;-87
2022/01/23 03:52:58;;;;;;;2.80;1.60;;;;;;;;;;6197790;23;20267;-88
2022/01/23 03:56:04;;;;;;;2.30;1.30;;;;;;;;;;6197316;23;20171;-89
2022/01/23 03:59:11;;;;;;;1.77;1.50;;;;;;;;;;6197010;23;20171;-91
2022/01/23 04:02:22;;;;;;;1.50;1.40;;;;;;;;;;6196749;23;20194;-90
2022/01/23 04:05:27;;;;;;;9.60;2.23;;;;;;;;;;6195568;23;20611;-90
2022/01/23 04:08:32;;;;;;;1.83;1.73;;;;;;;;;;6196035;23;20993;-89
2022/01/23 04:11:37;;;;;;;0.73;0.73;;;;;;;;;;6195338;23;20207;-87
2022/01/23 04:14:50;;;;;;;2.57;1.70;;;;;;;;;;6197032;23;20192;-89
2022/01/23 04:31:41;;;;;;;3.87;1.43;;;;;;;;;;6195093;23;20171;-90
2022/01/23 04:31:49;;;;;;;1.40;1.30;;;;;;;;;;6195282;23;20199;-90
2022/01/23 04:35:15;;;;;;;0.77;0.67;;;;;;;;;;6195437;23;20196;-88
2022/01/23 04:45:22;;;;;;;0.90;0.90;;;;;;;;;;6196619;23;20211;-90
2022/01/23 05:02:58;;;;;;;0.97;0.97;;;;;;;;;;6195903;23;20611;-90
2022/01/23 05:06:23;;;;;;;1.40;1.30;;;;;;;;;;6197844;23;20171;-91
2022/01/23 05:09:50;;;;;;;1.47;1.17;;;;;;;;;;6196408;23;20183;-88
2022/01/23 05:13:00;;;;;;;1.60;1.50;;;;;;;;;;6197430;23;20627;-89
2022/01/23 05:16:05;;;;;;;1.80;1.37;;;;;;;;;;6196990;23;20251;-88
2022/01/23 05:19:11;;;;;;;0.90;0.90;;;;;;;;;;6197345;23;20689;-88
2022/01/23 05:22:25;;;;;;;8.33;2.17;;;;;;;;;;6197772;23;20548;-87
2022/01/23 05:25:34;;;;;;;5.40;1.97;;;;;;;;;;6197609;23;20207;-89
2022/01/23 05:28:40;;;;;;;1.23;1.13;;;;;;;;;;6199510;23;20168;-88
2022/01/23 05:31:48;;;;;;;1.10;1.10;;;;;;;;;;6196516;23;20172;-89
2022/01/23 05:34:55;;;;;;;3.23;1.67;;;;;;;;;;6194759;23;20915;-85
2022/01/23 05:38:05;;;;;;;0.60;0.60;;;;;;;;;;6197357;23;20243;-88
2022/01/23 05:41:12;;;;;;;0.60;0.60;;;;;;;;;;6197412;23;20244;-89
2022/01/23 05:44:18;;;;;;;3.20;2.37;;;;;;;;;;6196958;23;20172;-89
2022/01/23 05:47:23;;;;;;;1.90;1.73;;;;;;;;;;6196438;23;20565;-87
2022/01/23 05:50:43;;;;;;;2.80;1.87;;;;;;;;;;6196969;23;20263;-91
2022/01/23 05:54:07;;;;;;;5.87;2.23;;;;;;;;;;6198066;23;20299;-91
2022/01/23 05:57:28;;;;;;;1.00;0.90;;;;;;;;;;6198372;23;20196;-87
2022/01/23 06:00:46;;;;;;;3.10;2.03;;;;;;;;;;6195613;23;20176;-89
2022/01/23 06:03:55;;;;;;;1.83;1.33;;;;;;;;;;6196004;23;20172;-91
2022/01/23 06:07:07;;;;;;;2.83;1.43;;;;;;;;;;6195548;23;20180;-90
2022/01/23 06:10:21;;;;;;;1.97;1.73;;;;;;;;;;6194721;23;20215;-87
2022/01/23 06:13:32;;;;;;;2.47;1.53;;;;;;;;;;6197659;23;20172;-90
2022/01/23 06:16:37;;;;;;;6.80;1.80;;;;;;;;;;6199966;23;20164;-87
2022/01/23 06:20:02;;;;;;;1.93;1.77;;;;;;;;;;6200701;23;20168;-85
2022/01/23 06:23:29;;;;;;;0.90;0.83;;;;;;;;;;6201316;23;20175;-89
2022/01/23 06:26:56;;;;;;;0.67;0.67;;;;;;;;;;6200614;23;20199;-88
2022/01/23 06:30:02;;;;;;;1.43;1.30;;;;;;;;;;6198942;23;20175;-90
2022/01/23 06:33:07;;;;;;;2.67;2.43;;;;;;;;;;6198740;23;20155;-88
2022/01/23 06:36:13;;;;;;;4.07;2.10;;;;;;;;;;6199759;23;20237;-85
2022/01/23 06:39:18;;;;;;;0.83;0.83;;;;;;;;;;6200068;23;20183;-85
2022/01/23 06:42:23;;;;;;;1.40;1.30;;;;;;;;;;6198879;23;20168;-92
2022/01/23 06:45:50;;;;;;;8.43;1.63;;;;;;;;;;6199252;23;20627;-89
2022/01/23 06:48:55;;;;;;;1.93;1.47;;;;;;;;;;6198010;23;20163;-89
2022/01/23 06:52:01;;;;;;;2.90;1.70;;;;;;;;;;6200886;23;20266;-87
2022/01/23 06:55:06;;;;;;;1.83;1.13;;;;;;;;;;6197105;23;20305;-90
2022/01/23 06:58:12;;;;;;;3.53;1.83;;;;;;;;;;6200024;23;20241;-89
2022/01/23 07:01:19;;;;;;;5.13;2.00;;;;;;;;;;6196950;23;20171;-86
2022/01/23 07:04:36;;;;;;;3.23;1.53;;;;;;;;;;6197520;23;20168;-90
2022/01/23 07:07:48;;;;;;;1.43;1.30;;;;;;;;;;6196819;23;20282;-88
2022/01/23 07:11:20;;;;;;;1.50;1.40;;;;;;;;;;6195780;23;20199;-89
2022/01/23 07:14:57;;;;;;;2.10;1.83;;;;;;;;;;6189419;23;20203;-89
2022/01/23 07:18:36;;;;;;;1.87;1.23;;;;;;;;;;6183198;23;20184;-88
2022/01/23 07:21:50;;;;;;;1.37;1.27;;;;;;;;;;6200103;23;20216;-88
2022/01/23 07:25:00;;;;;;;0.83;0.80;;;;;;;;;;6199941;23;20200;-90
2022/01/23 07:28:10;;;;;;;1.33;1.23;;;;;;;;;;6199193;23;20262;-87
2022/01/23 07:31:31;;;;;;;1.40;1.30;;;;;;;;;;6197356;23;20167;-87
2022/01/23 07:34:38;;;;;;;3.10;1.60;;;;;;;;;;6197647;23;20624;-87
2022/01/23 07:37:46;;;;;;;1.37;1.27;;;;;;;;;;6198916;23;20196;-88
2022/01/23 07:41:00;;;;;;;0.97;0.93;;;;;;;;;;6203083;23;20626;-89
2022/01/23 07:44:25;;;;;;;1.50;1.40;;;;;;;;;;6200524;23;20164;-87
2022/01/23 07:47:49;;;;;;;1.80;1.33;;;;;;;;;;6198701;23;20219;-89
2022/01/23 07:51:17;;;;;;;1.37;1.27;;;;;;;;;;6201093;23;20159;-90
2022/01/23 07:54:41;;;;;;;1.53;1.43;;;;;;;;;;6198093;23;20200;-87
2022/01/23 07:58:12;;;;;;;1.60;1.30;;;;;;;;;;6198897;23;20172;-90
2022/01/23 08:01:40;;;;;;;4.43;1.90;;;;;;;;;;6197850;23;20172;-90
2022/01/23 08:05:13;;;;;;;2.23;1.83;;;;;;;;;;6199680;23;20216;-86
2022/01/23 08:08:27;;;;;;;6.53;1.67;;;;;;;;;;6198565;23;20257;-89
2022/01/23 08:11:43;;;;;;;1.00;1.00;;;;;;;;;;6197780;23;20192;-89
2022/01/23 08:14:48;;;;;;;1.13;1.03;;;;;;;;;;6199592;23;20199;-89
2022/01/23 08:17:54;;;;;;;0.97;0.97;;;;;;;;;;6199244;23;20175;-91
2022/01/23 08:20:59;;;;;;;4.00;2.07;;;;;;;;;;6201339;23;20183;-90
2022/01/23 08:24:05;;;;;;;2.30;1.90;;;;;;;;;;6200916;23;20207;-90
2022/01/23 08:27:10;;;;;;;1.93;1.33;;;;;;;;;;6200462;23;20211;-88
2022/01/23 08:30:15;;;;;;;2.27;1.47;;;;;;;;;;6199440;23;20168;-87
2022/01/23 08:33:21;;;;;;;1.53;1.17;;;;;;;;;;6197682;23;20175;-90
2022/01/23 08:36:26;;;;;;;3.70;1.83;;;;;;;;;;6198843;23;20191;-89
2022/01/23 08:39:35;;;;;;;0.83;0.63;;;;;;;;;;6198267;23;20171;-87
2022/01/23 08:42:40;;;;;;;1.53;1.43;;;;;;;;;;6196781;23;20177;-88
2022/01/23 08:45:46;;;;;;;2.90;2.20;;;;;;;;;;6196980;23;20501;-88
2022/01/23 08:48:51;;;;;;;3.43;1.60;;;;;;;;;;6197575;23;20164;-86
2022/01/23 08:51:57;;;;;;;5.90;2.70;;;;;;;;;;6197066;23;20168;-88
2022/01/23 08:55:04;;;;;;;1.73;1.63;;;;;;;;;;6195364;23;20195;-87
2022/01/23 08:58:12;;;;;;;2.33;1.67;;;;;;;;;;6196640;23;20224;-87
2022/01/23 09:01:17;;;;;;;2.70;2.00;;;;;;;;;;6197793;23;20180;-90
2022/01/23 09:04:22;;;;;;;1.80;1.07;;;;;;;;;;6197563;23;20224;-88
2022/01/23 09:07:27;;;;;;;4.07;1.93;;;;;;;;;;6197491;23;20192;-86
2022/01/23 09:10:54;;;;;;;2.03;1.20;;;;;;;;;;6196740;23;20239;-89
2022/01/23 09:14:27;;;;;;;1.07;1.03;;;;;;;;;;6200595;23;20175;-87
2022/01/23 09:17:32;;;;;;;1.20;1.10;;;;;;;;;;6198487;23;20643;-87
2022/01/23 09:20:37;;;;;;;1.67;1.57;;;;;;;;;;6199930;23;20257;-86
2022/01/23 09:23:43;;;;;;;1.23;1.13;;;;;;;;;;6200104;23;20627;-87
2022/01/23 09:26:53;;;;;;;1.40;1.30;;;;;;;;;;6200166;23;20168;-87
2022/01/23 09:30:05;;;;;;;8.07;2.10;;;;;;;;;;6202546;23;20188;-87
2022/01/23 09:33:11;;;;;;;1.53;1.43;;;;;;;;;;6200568;23;20319;-89
2022/01/23 09:36:16;;;;;;;5.00;1.33;;;;;;;;;;6201074;23;20200;-90
2022/01/23 09:39:22;;;;;;;1.93;1.67;;;;;;;;;;6197704;23;20218;-87
2022/01/23 09:42:30;;;;;;;1.83;1.50;;;;;;;;;;6196996;23;20168;-90
2022/01/23 09:45:35;;;;;;;3.93;1.93;;;;;;;;;;6199190;23;20183;-87
2022/01/23 09:48:44;;;;;;;1.37;1.27;;;;;;;;;;6199372;23;20664;-87
2022/01/23 09:51:55;;;;;;;0.60;0.60;;;;;;;;;;6200336;23;20176;-89
2022/01/23 09:55:08;;;;;;;2.57;1.23;;;;;;;;;;6200257;23;20215;-89
2022/01/23 09:58:15;;;;;;;3.73;1.37;;;;;;;;;;6200512;23;20172;-88
2022/01/23 10:01:22;;;;;;;1.53;1.23;;;;;;;;;;6201263;23;20339;-88
2022/01/23 10:04:28;;;;;;;1.17;1.07;;;;;;;;;;6201105;23;20250;-89
2022/01/23 10:07:37;;;;;;;2.13;1.43;;;;;;;;;;6201421;23;20163;-89
2022/01/23 10:10:51;;;;;;;0.53;0.53;;;;;;;;;;6200661;23;20176;-90
2022/01/23 10:14:24;;;;;;;2.20;1.43;;;;;;;;;;6201970;23;20176;-91
2022/01/23 10:17:31;;;;;;;1.20;1.10;;;;;;;;;;6199996;23;20223;-89
2022/01/23 10:20:37;;;;;;;1.47;1.17;;;;;;;;;;6198332;23;20159;-91
2022/01/23 10:23:50;;;;;;;3.77;1.67;;;;;;;;;;6199862;23;20196;-87
2022/01/23 10:27:00;;;;;;;1.10;1.10;;;;;;;;;;6199993;23;20254;-90
2022/01/23 10:30:21;;;;;;;1.67;1.57;;;;;;;;;;6198990;23;20506;-89
2022/01/23 10:33:29;;;;;;;3.90;1.83;;;;;;;;;;6198288;23;20244;-90
2022/01/23 10:36:50;;;;;;;1.50;1.40;;;;;;;;;;6198605;23;20663;-88
2022/01/23 10:39:58;;;;;;;5.00;2.03;;;;;;;;;;6197219;23;20179;-89
2022/01/23 10:47:17;;;;;;;3.23;1.47;;;;;;;;;;6201582;23;20160;-90
2022/01/23 10:50:17;;;;;;;2.10;2.00;;;;;;;;;;6198369;23;20171;-91
2022/01/23 10:53:22;;;;;;;0.90;0.90;;;;;;;;;;6199947;23;20183;-90
2022/01/23 10:56:28;;;;;;;3.67;1.87;;;;;;;;;;6198691;23;20196;-89
2022/01/23 10:59:41;;;;;;;3.70;1.23;;;;;;;;;;6200008;23;20155;-88
2022/01/23 11:02:47;;;;;;;0.70;0.70;;;;;;;;;;6198525;23;20216;-90
2022/01/23 11:05:54;;;;;;;1.23;0.83;;;;;;;;;;6198824;23;20235;-89
2022/01/23 11:09:10;;;;;;;3.10;1.13;;;;;;;;;;6198306;23;20233;-91
2022/01/23 11:12:31;;;;;;;1.37;0.87;;;;;;;;;;6181430;23;20187;-90
2022/01/23 11:19:04;;;;;;;3.40;1.70;;;;;;;;;;6196672;23;20163;-90
2022/01/23 11:22:16;;;;;;;2.50;2.17;;;;;;;;;;6196469;23;20244;-89
2022/01/23 11:25:21;;;;;;;7.67;2.03;;;;;;;;;;6197080;23;20180;-89
2022/01/23 11:28:29;;;;;;;0.93;0.93;;;;;;;;;;6197477;23;20175;-88
2022/01/23 11:31:35;;;;;;;0.77;0.70;;;;;;;;;;6196995;23;20213;-89
2022/01/23 11:34:41;;;;;;;1.00;1.00;;;;;;;;;;6199721;23;20179;-90
2022/01/23 11:37:50;;;;;;;0.63;0.63;;;;;;;;;;6198636;23;20247;-87
2022/01/23 11:54:54;;;;;;;1.23;1.13;;;;;;;;;;6202673;23;20168;-91
2022/01/23 11:58:00;;;;;;;1.07;0.97;;;;;;;;;;6200808;23;20186;-90
2022/01/23 12:01:18;;;;;;;2.30;1.23;;;;;;;;;;6199657;23;20199;-89
2022/01/23 12:04:23;;;;;;;3.37;1.87;;;;;;;;;;6200393;23;20190;-89
2022/01/23 12:07:36;;;;;;;1.13;1.03;;;;;;;;;;6200815;23;20171;-91
2022/01/23 12:11:23;;;;;;;4.63;1.10;;;;;;;;;;6200604;23;20187;-87
2022/01/23 12:18:21;;;;;;;23.40;10.83;;;;;;;;;;6203432;23;20164;-90
2022/01/23 12:21:32;;;;;;;25.40;11.50;;;;;;;;;;6204624;23;20199;-89
2022/01/23 12:24:53;;;;;;;25.10;11.27;;;;;;;;;;6203529;23;20160;-91
2022/01/23 12:28:21;;;;;;;19.30;9.60;;;;;;;;;;6201787;23;20179;-87
2022/01/23 12:31:38;;;;;;;23.47;9.67;;;;;;;;;;6201736;23;20164;-87
2022/01/23 12:34:57;;;;;;;19.80;9.13;;;;;;;;;;6202384;23;20167;-90
2022/01/23 12:38:09;;;;;;;18.87;8.63;;;;;;;;;;6201155;23;20176;-90
2022/01/23 12:41:16;;;;;;;21.37;9.57;;;;;;;;;;6201852;23;20179;-87
2022/01/23 12:44:33;;;;;;;20.20;9.57;;;;;;;;;;6204149;23;20231;-90
2022/01/23 12:47:40;;;;;;;18.07;8.83;;;;;;;;;;6202251;23;20156;-90
2022/01/23 12:50:46;;;;;;;20.53;8.97;;;;;;;;;;6200377;23;20167;-90
2022/01/23 12:54:06;;;;;;;17.47;8.20;;;;;;;;;;6201377;23;20176;-90
2022/01/23 12:57:13;;;;;;;19.30;8.33;;;;;;;;;;6201620;23;20197;-92
2022/01/23 13:00:25;;;;;;;16.23;8.03;;;;;;;;;;6200400;23;20221;-90
2022/01/23 13:03:31;;;;;;;17.13;8.13;;;;;;;;;;6200034;23;20223;-91
2022/01/23 13:06:39;;;;;;;15.80;7.90;;;;;;;;;;6199761;23;20188;-89
2022/01/23 13:09:51;;;;;;;17.43;8.07;;;;;;;;;;6201875;23;20175;-89
2022/01/23 13:13:07;;;;;;;16.83;8.07;;;;;;;;;;6200434;23;20219;-91
2022/01/23 13:20:00;;;;;;;16.57;8.43;;;;;;;;;;6199289;23;20188;-90
2022/01/23 13:30:12;;;;;;;17.40;8.30;;;;;;;;;;6122614;23;20203;-92
2022/01/23 13:33:22;;;;;;;16.93;7.93;;;;;;;;;;6197877;23;20216;-88
2022/01/23 13:36:29;;;;;;;17.37;7.77;;;;;;;;;;6199741;23;20184;-90
2022/01/23 13:39:37;;;;;;;18.40;7.80;;;;;;;;;;6201975;23;20192;-90
2022/01/23 13:53:20;;;;;;;13.10;6.27;;;;;;;;;;6098319;23;20305;-89
2022/01/23 13:59:53;;;;;;;14.90;7.03;;;;;;;;;;6200375;23;20156;-90
2022/01/23 14:02:59;;;;;;;14.20;7.07;;;;;;;;;;6201444;23;20167;-90
2022/01/23 14:06:04;;;;;;;14.50;7.13;;;;;;;;;;6202429;23;20171;-86
2022/01/23 14:09:13;;;;;;;13.27;6.53;;;;;;;;;;6201502;23;20164;-89
2022/01/23 14:12:19;;;;;;;12.37;5.97;;;;;;;;;;6205022;23;20240;-91
2022/01/23 14:15:25;;;;;;;15.23;6.97;;;;;;;;;;6202774;23;20175;-88
2022/01/23 14:18:32;;;;;;;12.93;6.20;;;;;;;;;;6202569;23;20188;-87
2022/01/23 14:21:41;;;;;;;13.47;6.10;;;;;;;;;;6200212;23;20167;-90
2022/01/23 14:24:47;;;;;;;11.30;5.77;;;;;;;;;;6200531;23;20272;-87
2022/01/23 14:28:02;;;;;;;13.37;5.90;;;;;;;;;;6200993;23;20192;-89
2022/01/23 14:31:14;;;;;;;13.73;6.77;;;;;;;;;;6201114;23;20239;-88
2022/01/23 14:34:24;;;;;;;13.63;6.53;;;;;;;;;;6198402;23;20639;-87
2022/01/23 14:37:28;;;;;;;14.37;6.80;;;;;;;;;;6199783;23;20192;-88
2022/01/23 14:40:45;;;;;;;13.23;5.87;;;;;;;;;;6199229;23;20172;-89
2022/01/23 14:43:50;;;;;;;13.43;6.23;;;;;;;;;;6198079;23;20176;-90
2022/01/23 14:46:58;;;;;;;13.00;6.07;;;;;;;;;;6199754;23;20175;-89
2022/01/23 14:50:06;;;;;;;12.87;6.20;;;;;;;;;;6198652;23;20695;-90
2022/01/23 14:53:12;;;;;;;11.77;5.77;;;;;;;;;;6198260;23;20478;-90
2022/01/23 14:56:19;;;;;;;15.80;6.30;;;;;;;;;;6196393;23;20199;-90
2022/01/23 14:59:25;;;;;;;12.90;5.90;;;;;;;;;;6201916;23;20575;-88
2022/01/23 15:02:30;;;;;;;17.00;5.73;;;;;;;;;;6199033;23;20309;-87
2022/01/23 15:05:36;;;;;;;11.97;6.27;;;;;;;;;;6197691;23;20604;-88
2022/01/23 15:08:41;;;;;;;10.13;4.70;;;;;;;;;;6198302;23;20167;-88
2022/01/23 15:11:48;;;;;;;11.03;5.00;;;;;;;;;;6197805;23;20239;-89
2022/01/23 15:14:53;;;;;;;9.53;4.93;;;;;;;;;;6199051;23;20223;-87
2022/01/23 15:17:59;;;;;;;12.17;5.60;;;;;;;;;;6196684;23;20196;-90
2022/01/23 15:21:06;;;;;;;8.77;4.80;;;;;;;;;;6200762;23;20164;-88
2022/01/23 15:24:14;;;;;;;10.23;4.93;;;;;;;;;;6202345;23;20643;-88
2022/01/23 15:27:20;;;;;;;9.83;5.30;;;;;;;;;;6203849;23;20198;-91
2022/01/23 15:30:26;;;;;;;10.93;5.00;;;;;;;;;;6201338;23;20176;-89
2022/01/23 15:33:32;;;;;;;10.63;5.40;;;;;;;;;;6201270;23;20280;-91
2022/01/23 15:36:37;;;;;;;14.30;6.00;;;;;;;;;;6201430;23;20183;-91
2022/01/23 15:39:42;;;;;;;17.27;7.47;;;;;;;;;;6201379;23;20171;-89
2022/01/23 15:42:50;;;;;;;17.97;8.60;;;;;;;;;;6201794;23;20164;-88
2022/01/23 15:45:55;;;;;;;18.47;7.83;;;;;;;;;;6201144;23;20160;-89
2022/01/23 15:49:00;;;;;;;21.57;8.23;;;;;;;;;;6200523;23;20213;-89
2022/01/23 15:52:06;;;;;;;16.47;7.40;;;;;;;;;;6202129;23;20211;-89
2022/01/23 15:55:13;;;;;;;15.97;6.77;;;;;;;;;;6201245;23;20584;-90
2022/01/23 15:58:20;;;;;;;18.67;8.00;;;;;;;;;;6200438;23;20223;-88
2022/01/23 16:01:25;;;;;;;13.90;6.67;;;;;;;;;;6201390;23;20175;-90
2022/01/23 16:04:34;;;;;;;13.37;6.37;;;;;;;;;;6199232;23;20191;-90
2022/01/23 16:07:40;;;;;;;13.90;6.60;;;;;;;;;;6198882;23;20168;-88
2022/01/23 16:10:46;;;;;;;14.17;6.00;;;;;;;;;;6201787;23;20219;-88
2022/01/23 16:13:53;;;;;;;13.67;5.93;;;;;;;;;;6199259;23;20232;-87
2022/01/23 16:16:58;;;;;;;13.17;6.20;;;;;;;;;;6202027;23;20191;-88
2022/01/23 16:20:04;;;;;;;11.80;6.40;;;;;;;;;;6201603;23;20183;-89
2022/01/23 16:23:10;;;;;;;15.50;5.87;;;;;;;;;;6202960;23;20172;-88
2022/01/23 16:26:17;;;;;;;11.77;5.40;;;;;;;;;;6199874;23;20216;-89
2022/01/23 16:29:25;;;;;;;13.33;5.90;;;;;;;;;;6201529;23;20163;-89
2022/01/23 16:32:30;;;;;;;11.87;5.87;;;;;;;;;;6201271;23;20260;-89
2022/01/23 16:35:35;;;;;;;14.67;6.30;;;;;;;;;;6202935;23;20247;-88
2022/01/23 16:38:45;;;;;;;13.13;6.57;;;;;;;;;;6200663;23;20525;-88
2022/01/23 16:41:50;;;;;;;10.70;5.37;;;;;;;;;;6199127;23;20216;-88
2022/01/23 16:44:57;;;;;;;13.73;6.27;;;;;;;;;;6201818;23;20215;-89
2022/01/23 16:48:02;;;;;;;12.53;5.90;;;;;;;;;;6200655;23;20639;-90
2022/01/23 16:51:10;;;;;;;15.00;6.70;;;;;;;;;;6201943;23;20171;-91
2022/01/23 16:54:16;;;;;;;12.30;6.13;;;;;;;;;;6202147;23;20229;-91
2022/01/23 16:57:22;;;;;;;14.00;6.87;;;;;;;;;;6199181;23;20191;-91
2022/01/23 17:00:28;;;;;;;15.60;7.43;;;;;;;;;;6196559;23;20167;-89
2022/01/23 17:03:33;;;;;;;15.53;7.03;;;;;;;;;;6200200;23;20175;-90
2022/01/23 17:09:57;;;;;;;18.87;8.40;;;;;;;;;;6198333;23;20164;-90
2022/01/23 17:13:03;;;;;;;18.37;7.73;;;;;;;;;;6201900;23;20215;-87
2022/01/23 17:16:09;;;;;;;24.00;9.80;;;;;;;;;;6199654;23;20233;-91
2022/01/23 17:19:16;;;;;;;40.70;13.60;;;;;;;;;;6200883;23;20171;-90
2022/01/23 17:22:25;;;;;;;22.77;10.03;;;;;;;;;;6197971;23;20199;-90
2022/01/23 17:25:30;;;;;;;25.50;8.87;;;;;;;;;;6199155;23;20172;-89
2022/01/23 17:28:36;;;;;;;20.87;9.10;;;;;;;;;;6199071;23;20525;-90
2022/01/23 17:31:42;;;;;;;19.60;8.40;;;;;;;;;;6198800;23;20171;-90
2022/01/23 17:34:47;;;;;;;15.07;7.67;;;;;;;;;;6199144;23;20175;-90
2022/01/23 17:37:51;;;;;;;16.50;7.83;;;;;;;;;;6198443;23;20210;-88
2022/01/23 17:40:57;;;;;;;17.43;7.50;;;;;;;;;;6197882;23;20171;-90
2022/01/23 17:44:02;;;;;;;17.43;7.60;;;;;;;;;;6198439;23;20227;-89
2022/01/23 17:47:19;;;;;;;14.17;6.50;;;;;;;;;;6196488;23;20164;-89
2022/01/23 17:50:30;;;;;;;19.53;9.43;;;;;;;;;;6199160;23;20238;-90
2022/01/23 17:53:37;;;;;;;17.27;8.33;;;;;;;;;;6198628;23;20171;-90
2022/01/23 17:56:42;;;;;;;15.33;7.33;;;;;;;;;;6198855;23;20287;-88
2022/01/23 17:59:48;;;;;;;19.77;7.77;;;;;;;;;;6199872;23;20168;-90
2022/01/23 18:02:55;;;;;;;14.77;6.80;;;;;;;;;;6198744;23;20199;-89
2022/01/23 18:06:02;;;;;;;14.57;7.87;;;;;;;;;;6199925;23;20167;-89
2022/01/23 18:09:09;;;;;;;17.50;8.27;;;;;;;;;;6200030;23;20221;-90
2022/01/23 18:12:14;;;;;;;13.23;6.77;;;;;;;;;;6199896;23;20214;-90
2022/01/23 18:15:18;;;;;;;16.87;7.97;;;;;;;;;;6197771;23;20184;-91
2022/01/23 18:18:28;;;;;;;14.73;6.90;;;;;;;;;;6196693;23;20235;-90
2022/01/23 18:21:33;;;;;;;14.37;7.60;;;;;;;;;;6203693;23;20176;-89
2022/01/23 18:24:39;;;;;;;18.77;8.30;;;;;;;;;;6195987;23;20175;-89
2022/01/23 18:27:45;;;;;;;13.57;6.57;;;;;;;;;;6196899;23;20167;-90
2022/01/23 18:30:50;;;;;;;12.53;6.17;;;;;;;;;;6197509;23;20175;-90
2022/01/23 18:33:57;;;;;;;22.60;10.47;;;;;;;;;;6194820;23;20175;-89
2022/01/23 18:37:06;;;;;;;13.57;6.80;;;;;;;;;;6200759;23;20168;-90
2022/01/23 18:40:14;;;;;;;16.00;7.20;;;;;;;;;;6196431;23;20686;-88
2022/01/23 18:43:19;;;;;;;14.43;7.07;;;;;;;;;;6195611;23;20179;-91
2022/01/23 18:46:24;;;;;;;14.23;7.03;;;;;;;;;;6197602;23;20267;-88
2022/01/23 18:49:31;;;;;;;15.23;7.13;;;;;;;;;;6197499;23;20210;-90
2022/01/23 18:52:43;;;;;;;15.93;7.63;;;;;;;;;;6197860;23;20172;-88
2022/01/23 18:55:50;;;;;;;14.37;7.13;;;;;;;;;;6195456;23;20172;-88
2022/01/23 18:58:58;;;;;;;21.03;9.43;;;;;;;;;;6195806;23;20227;-90
2022/01/23 19:02:03;;;;;;;17.30;8.73;;;;;;;;;;6197254;23;20171;-91
2022/01/23 19:05:13;;;;;;;18.53;8.90;;;;;;;;;;6197410;23;20171;-88
2022/01/23 19:08:20;;;;;;;20.07;8.10;;;;;;;;;;6196760;23;20175;-89
2022/01/23 19:11:29;;;;;;;20.53;9.23;;;;;;;;;;6195997;23;20523;-89
2022/01/23 19:14:34;;;;;;;18.73;9.47;;;;;;;;;;6197953;23;20172;-90
2022/01/23 19:18:06;;;;;;;18.20;9.00;;;;;;;;;;6197579;23;20195;-90
2022/01/23 19:21:13;;;;;;;17.40;8.63;;;;;;;;;;6196901;23;20167;-87
2022/01/23 19:24:20;;;;;;;17.63;8.97;;;;;;;;;;6194475;23;20214;-89
2022/01/23 19:27:30;;;;;;;18.43;9.17;;;;;;;;;;6204458;23;20216;-89
2022/01/23 19:30:36;;;;;;;21.73;10.23;;;;;;;;;;6204122;23;20211;-90
2022/01/23 19:33:42;;;;;;;18.27;8.40;;;;;;;;;;6196886;23;20176;-88
2022/01/23 19:36:49;;;;;;;17.87;8.13;;;;;;;;;;6195577;23;20167;-90
2022/01/23 19:39:54;;;;;;;14.57;7.47;;;;;;;;;;6196183;23;20168;-89
2022/01/23 19:43:26;;;;;;;21.80;8.53;;;;;;;;;;6199138;23;20172;-90
2022/01/23 19:46:37;;;;;;;19.87;8.20;;;;;;;;;;6197639;23;20168;-90
2022/01/23 19:49:45;;;;;;;16.30;8.43;;;;;;;;;;6197510;23;20168;-90
2022/01/23 19:52:53;;;;;;;18.20;8.13;;;;;;;;;;6198525;23;20338;-90
2022/01/23 19:55:58;;;;;;;49.50;21.70;;;;;;;;;;6198890;23;20216;-90
2022/01/23 19:59:04;;;;;;;22.33;9.17;;;;;;;;;;6199211;23;20190;-91
2022/01/23 20:02:09;;;;;;;14.97;7.67;;;;;;;;;;6199374;23;20172;-89
2022/01/23 20:05:14;;;;;;;15.33;7.30;;;;;;;;;;6197195;23;20176;-92
2022/01/23 20:08:24;;;;;;;15.87;7.37;;;;;;;;;;6198873;23;20164;-90
2022/01/23 20:14:54;;;;;;;16.10;8.10;;;;;;;;;;6200297;23;20187;-90
2022/01/23 20:17:59;;;;;;;18.37;8.60;;;;;;;;;;6200084;23;20191;-91
2022/01/23 20:21:04;;;;;;;27.97;10.70;;;;;;;;;;6199103;23;20224;-89
2022/01/23 20:24:12;;;;;;;24.07;10.97;;;;;;;;;;6199968;23;20151;-91
2022/01/23 20:27:19;;;;;;;18.37;8.90;;;;;;;;;;6199216;23;20198;-91
2022/01/23 20:30:24;;;;;;;18.27;9.30;;;;;;;;;;6200812;23;20175;-91
2022/01/23 20:33:29;;;;;;;16.33;8.80;;;;;;;;;;6200036;23;20471;-91
2022/01/23 20:36:34;;;;;;;20.17;7.97;;;;;;;;;;6200066;23;20236;-89
2022/01/23 20:39:41;;;;;;;17.83;8.90;;;;;;;;;;6198317;23;20626;-88
2022/01/23 20:42:46;;;;;;;15.83;8.20;;;;;;;;;;6199652;23;20168;-89
2022/01/23 20:45:52;;;;;;;15.43;7.80;;;;;;;;;;6200805;23;20208;-92
2022/01/23 20:48:57;;;;;;;14.57;7.53;;;;;;;;;;6200000;23;20211;-87
2022/01/23 20:52:10;;;;;;;17.60;8.53;;;;;;;;;;6200067;23;20204;-90
2022/01/23 20:55:16;;;;;;;18.33;9.43;;;;;;;;;;6202430;23;20168;-89
2022/01/23 20:58:22;;;;;;;16.33;8.93;;;;;;;;;;6202032;23;20191;-90
2022/01/23 21:01:27;;;;;;;19.90;9.90;;;;;;;;;;6201129;23;20228;-89
2022/01/23 21:04:33;;;;;;;22.73;10.27;;;;;;;;;;6201138;23;20175;-88
2022/01/23 21:07:38;;;;;;;17.63;8.90;;;;;;;;;;6202355;23;20167;-90
2022/01/23 21:10:45;;;;;;;20.43;9.17;;;;;;;;;;6201703;23;20156;-89
2022/01/23 21:14:00;;;;;;;20.13;9.17;;;;;;;;;;6202087;23;20172;-88
2022/01/23 21:17:22;;;;;;;18.17;8.87;;;;;;;;;;6202398;23;20183;-90
2022/01/23 21:20:35;;;;;;;20.00;9.00;;;;;;;;;;6203346;23;20241;-90
2022/01/23 21:28:40;;;;;;;19.43;9.20;;;;;;;;;;6203626;23;20155;-90
2022/01/23 21:40:51;;;;;;;17.10;8.67;;;;;;;;;;6162216;23;20191;-90
2022/01/23 21:43:58;;;;;;;17.73;8.90;;;;;;;;;;6200908;23;20215;-91
2022/01/23 21:47:04;;;;;;;16.83;7.97;;;;;;;;;;6202855;23;20171;-89
2022/01/23 21:50:09;;;;;;;16.23;8.17;;;;;;;;;;6203000;23;20168;-89